Time;durP1;ratioP1;P1;durP2;ratioP2;P2;SDS_P1;SDS_P2;PMS_P1;PMS_P2;Temp;Humidity;BMP_temperature;BMP_pressure;BME280_temperature;BME280_humidity;BME280_pressure;Samples;Min_cycle;Max_cycle;Signal;HPM_P1;HPM_P2
2022/12/19 00:02:02;;;;;;;1999.90;999.90;;;;;;;-4.80;100.00;95828.44;5033886;28;20209;-60
2022/12/19 00:04:28;;;;;;;1999.90;999.90;;;;;;;-4.76;100.00;95828.59;5033683;28;20206;-67
2022/12/19 00:06:57;;;;;;;1999.90;999.90;;;;;;;-4.68;100.00;95831.38;5033716;28;20216;-60
2022/12/19 00:09:23;;;;;;;1999.90;999.90;;;;;;;-4.57;100.00;95835.41;5033600;28;20274;-61
2022/12/19 00:11:49;;;;;;;1999.90;999.90;;;;;;;-4.64;100.00;95821.72;5034289;28;20190;-61
2022/12/19 00:14:15;;;;;;;1999.90;999.90;;;;;;;-4.73;100.00;95833.34;5034228;28;20269;-60
2022/12/19 00:16:40;;;;;;;1999.90;999.90;;;;;;;-4.60;100.00;95836.00;5033402;28;20231;-61
2022/12/19 00:19:05;;;;;;;1999.90;999.90;;;;;;;-4.50;100.00;95833.16;5033462;28;20174;-61
2022/12/19 00:21:33;;;;;;;1999.90;999.90;;;;;;;-4.54;100.00;95840.16;5034133;28;20312;-58
2022/12/19 00:23:59;;;;;;;1999.90;999.90;;;;;;;-4.46;100.00;95844.78;5034011;28;20265;-58
2022/12/19 00:26:27;;;;;;;1999.90;999.90;;;;;;;-4.55;100.00;95833.22;5033953;28;20213;-59
2022/12/19 00:28:55;;;;;;;1999.90;999.90;;;;;;;-4.60;100.00;95822.69;5034026;28;20190;-58
2022/12/19 00:31:21;;;;;;;1999.90;999.90;;;;;;;-4.62;100.00;95824.84;5033706;28;20249;-58
2022/12/19 00:33:48;;;;;;;1999.90;999.90;;;;;;;-4.61;100.00;95815.78;5033897;28;20600;-58
2022/12/19 00:36:16;;;;;;;1999.90;999.90;;;;;;;-4.65;100.00;95798.81;5033391;28;20170;-58
2022/12/19 00:38:42;;;;;;;1999.90;999.90;;;;;;;-4.65;100.00;95804.16;5033159;28;20175;-58
2022/12/19 00:41:10;;;;;;;1999.90;999.90;;;;;;;-4.66;100.00;95801.78;5033544;28;20166;-66
2022/12/19 00:43:37;;;;;;;1999.90;999.90;;;;;;;-4.63;100.00;95796.66;5033600;28;20213;-57
2022/12/19 00:46:08;;;;;;;1999.90;999.90;;;;;;;-4.41;100.00;95804.69;5033241;28;20263;-56
2022/12/19 00:48:34;;;;;;;1999.90;999.90;;;;;;;-4.26;100.00;95820.38;5033205;28;20274;-56
2022/12/19 00:51:11;;;;;;;1999.90;999.90;;;;;;;-4.15;100.00;95845.72;5032937;28;20218;-53
2022/12/19 00:53:37;;;;;;;1999.90;999.90;;;;;;;-4.00;100.00;95868.59;5033906;28;20635;-56
2022/12/19 00:56:04;;;;;;;1999.90;999.90;;;;;;;-3.85;100.00;95874.41;5033625;28;20171;-56
2022/12/19 00:58:30;;;;;;;1999.90;999.90;;;;;;;-3.88;100.00;95856.31;5032943;28;20171;-56
2022/12/19 01:00:56;;;;;;;1999.90;999.90;;;;;;;-3.91;100.00;95861.47;5033441;28;20202;-58
2022/12/19 01:03:22;;;;;;;1999.90;999.90;;;;;;;-3.89;100.00;95854.72;5033272;28;20175;-59
2022/12/19 01:05:49;;;;;;;1999.90;999.90;;;;;;;-3.92;100.00;95854.56;5032992;28;20686;-59
2022/12/19 01:08:17;;;;;;;1999.90;999.90;;;;;;;-3.95;100.00;95861.28;5033214;28;20210;-60
2022/12/19 01:10:46;;;;;;;1999.90;999.90;;;;;;;-3.85;100.00;95874.41;5033009;28;20175;-59
2022/12/19 01:13:13;;;;;;;1999.90;999.90;;;;;;;-3.82;100.00;95876.44;5033078;28;20171;-59
2022/12/19 01:15:40;;;;;;;1999.90;999.90;;;;;;;-3.92;100.00;95897.22;5032779;28;20175;-60
2022/12/19 01:18:09;;;;;;;1999.90;999.90;;;;;;;-3.95;100.00;95911.16;5033513;28;20217;-60
2022/12/19 01:20:37;;;;;;;1999.90;999.90;;;;;;;-3.94;100.00;95907.38;5032978;28;20308;-64
2022/12/19 01:23:02;;;;;;;1999.90;999.90;;;;;;;-3.95;100.00;95908.47;5033262;28;20171;-66
2022/12/19 01:25:28;;;;;;;1999.90;999.90;;;;;;;-4.01;100.00;95904.31;5032680;28;20210;-65
2022/12/19 01:27:54;;;;;;;1999.90;999.90;;;;;;;-4.06;100.00;95910.56;5033604;28;20186;-65
2022/12/19 01:30:19;;;;;;;1999.90;999.90;;;;;;;-4.05;100.00;95909.47;5032661;28;20219;-64
2022/12/19 01:32:44;;;;;;;1999.90;999.90;;;;;;;-4.08;100.00;95904.75;5036618;28;20175;-65
2022/12/19 01:35:10;;;;;;;1999.90;999.90;;;;;;;-4.09;100.00;95908.50;5036259;28;20175;-59
2022/12/19 01:37:35;;;;;;;1999.90;999.90;;;;;;;-4.10;100.00;95914.94;5036233;28;20225;-65
2022/12/19 01:40:00;;;;;;;1999.90;999.90;;;;;;;-4.15;100.00;95920.34;5036840;28;20175;-61
2022/12/19 01:42:34;;;;;;;1999.90;999.90;;;;;;;-4.17;100.00;95932.38;5036072;28;20252;-61
2022/12/19 01:45:08;;;;;;;1999.90;999.90;;;;;;;-4.06;100.00;95939.91;5036662;28;20185;-61
2022/12/19 01:47:43;;;;;;;1999.90;999.90;;;;;;;-4.03;100.00;95949.19;5036182;28;20205;-60
2022/12/19 01:50:18;;;;;;;1999.90;999.90;;;;;;;-3.96;100.00;95955.66;5035824;28;20224;-60
2022/12/19 01:52:44;;;;;;;1999.90;999.90;;;;;;;-3.90;100.00;95951.81;5036095;28;20178;-67
2022/12/19 01:55:10;;;;;;;1999.90;999.90;;;;;;;-3.87;100.00;95958.44;5036589;28;20181;-60
2022/12/19 01:57:36;;;;;;;1999.90;999.90;;;;;;;-3.86;100.00;95960.81;5036663;28;20185;-55
2022/12/19 02:00:04;;;;;;;1999.90;999.90;;;;;;;-3.79;100.00;95950.53;5036425;28;20563;-54
2022/12/19 02:02:37;;;;;;;1999.90;999.90;;;;;;;-3.78;100.00;95962.75;5035355;28;20270;-55
2022/12/19 02:05:04;;;;;;;1999.90;999.90;;;;;;;-3.77;100.00;95969.69;5035583;28;20191;-55
2022/12/19 02:07:31;;;;;;;1999.90;999.90;;;;;;;-3.73;100.00;95977.88;5035384;28;20187;-55
2022/12/19 02:09:57;;;;;;;1999.90;999.90;;;;;;;-3.67;100.00;95985.47;5035881;28;20170;-56
2022/12/19 02:12:24;;;;;;;1999.90;999.90;;;;;;;-3.66;100.00;95987.06;5035717;28;20175;-59
2022/12/19 02:14:50;;;;;;;1999.90;999.90;;;;;;;-3.61;100.00;95988.81;5035332;28;20175;-55
2022/12/19 02:17:31;;;;;;;1999.90;999.90;;;;;;;-3.58;100.00;95996.22;5035566;28;20751;-54
2022/12/19 02:20:21;;;;;;;1999.90;999.90;;;;;;;-3.54;100.00;96000.69;5036173;28;20193;-55
2022/12/19 02:23:17;;;;;;;1999.90;999.90;;;;;;;-3.56;100.00;96007.41;5035499;28;20261;-52
2022/12/19 02:26:01;;;;;;;1999.90;999.90;;;;;;;-3.52;100.00;96008.38;5035240;28;20234;-53
2022/12/19 02:28:45;;;;;;;1999.90;999.90;;;;;;;-3.51;100.00;96008.09;5035292;28;20197;-55
2022/12/19 02:31:52;;;;;;;1999.90;999.90;;;;;;;-3.54;100.00;96006.00;5035043;28;20223;-57
2022/12/19 02:34:28;;;;;;;1999.90;999.90;;;;;;;-3.64;100.00;96026.78;4959424;28;20216;-56
2022/12/19 02:37:02;;;;;;;1999.90;999.90;;;;;;;-3.62;100.00;96030.72;4959917;28;20232;-56
2022/12/19 02:39:44;;;;;;;1999.90;999.90;;;;;;;-3.54;100.00;96016.69;5005086;28;20232;-56
2022/12/19 02:42:18;;;;;;;1999.90;999.90;;;;;;;-3.54;100.00;96032.69;5035470;28;20174;-54
2022/12/19 02:44:48;;;;;;;1999.90;999.90;;;;;;;-3.56;100.00;96023.41;5035386;28;20167;-56
2022/12/19 02:47:15;;;;;;;1999.90;999.90;;;;;;;-3.58;100.00;96026.38;5035442;28;20186;-56
2022/12/19 02:49:40;;;;;;;1999.90;999.90;;;;;;;-3.70;100.00;96039.44;5035076;28;20175;-59
2022/12/19 02:52:32;;;;;;;1999.90;999.90;;;;;;;-3.66;100.00;96061.75;5034913;28;20181;-67
2022/12/19 02:55:05;;;;;;;1999.90;999.90;;;;;;;-3.63;100.00;96061.19;5034977;28;20265;-67
2022/12/19 02:57:39;;;;;;;1999.90;999.90;;;;;;;-3.61;100.00;96044.84;5034649;28;20178;-66
2022/12/19 03:00:09;;;;;;;1999.90;999.90;;;;;;;-3.51;100.00;96048.13;5034794;28;20162;-65
2022/12/19 03:02:46;;;;;;;1999.90;999.90;;;;;;;-3.46;100.00;96045.34;5034395;28;20174;-67
2022/12/19 03:05:30;;;;;;;1999.90;999.90;;;;;;;-3.47;100.00;96049.09;5035296;28;20201;-67
2022/12/19 03:08:24;;;;;;;1999.90;999.90;;;;;;;-3.40;100.00;96066.59;5034888;28;20178;-66
2022/12/19 03:10:59;;;;;;;1999.90;999.90;;;;;;;-3.42;100.00;96057.00;5034481;28;20185;-67
2022/12/19 03:13:30;;;;;;;1999.90;999.90;;;;;;;-3.36;100.00;96040.88;5035298;28;20178;-70
2022/12/19 03:15:58;;;;;;;1999.90;999.90;;;;;;;-3.34;100.00;96060.03;5034676;28;20250;-67
2022/12/19 03:18:24;;;;;;;1999.90;999.90;;;;;;;-3.54;100.00;96048.72;5034938;28;20202;-68
2022/12/19 03:21:20;;;;;;;1999.90;999.90;;;;;;;-3.57;100.00;96049.28;5034168;28;20182;-67
2022/12/19 03:23:46;;;;;;;1999.90;999.90;;;;;;;-3.66;100.00;96059.09;5035036;28;20175;-67
2022/12/19 03:26:16;;;;;;;1999.90;999.90;;;;;;;-3.63;100.00;96066.50;5034174;28;20222;-61
2022/12/19 03:29:05;;;;;;;1999.90;999.90;;;;;;;-3.61;100.00;96064.31;5034393;28;20185;-55
2022/12/19 03:31:33;;;;;;;1999.90;999.90;;;;;;;-3.66;100.00;96055.63;5034054;28;20231;-56
2022/12/19 03:34:03;;;;;;;1999.90;999.90;;;;;;;-3.65;100.00;96057.19;5034240;28;20190;-56
2022/12/19 03:36:39;;;;;;;1999.90;999.90;;;;;;;-3.75;100.00;96071.53;5034486;28;20194;-57
2022/12/19 03:39:07;;;;;;;1999.90;999.90;;;;;;;-3.77;100.00;96065.72;5033847;28;20232;-57
2022/12/19 03:44:23;;;;;;;1999.90;999.90;;;;;;;-3.73;100.00;96077.38;5035433;28;20262;-56
2022/12/19 03:46:56;;;;;;;1999.90;999.90;;;;;;;-3.72;100.00;96081.59;5033731;28;20256;-59
2022/12/19 03:49:22;;;;;;;1999.90;999.90;;;;;;;-3.78;100.00;96074.00;5034596;28;20185;-59
2022/12/19 03:52:06;;;;;;;1999.90;999.90;;;;;;;-3.80;100.00;96082.31;5033862;28;20174;-59
2022/12/19 03:54:40;;;;;;;1999.90;999.90;;;;;;;-3.93;100.00;96053.75;5033513;28;20174;-59
2022/12/19 03:57:17;;;;;;;1999.90;999.90;;;;;;;-4.01;100.00;96069.63;5034418;28;20179;-59
2022/12/19 04:00:00;;;;;;;1999.90;999.90;;;;;;;-3.97;100.00;96055.41;5034109;28;20178;-59
2022/12/19 04:02:26;;;;;;;1999.90;999.90;;;;;;;-4.03;100.00;96061.94;5033450;28;20265;-60
2022/12/19 04:05:01;;;;;;;1999.90;999.90;;;;;;;-4.05;100.00;96039.31;5033705;28;20222;-61
2022/12/19 04:07:26;;;;;;;1999.90;999.90;;;;;;;-3.93;100.00;96035.06;5033920;28;20631;-67
2022/12/19 04:09:54;;;;;;;1999.90;999.90;;;;;;;-3.86;100.00;96019.47;5033985;28;20175;-66
2022/12/19 04:12:29;;;;;;;1999.90;999.90;;;;;;;-3.92;100.00;96003.88;5033397;28;20270;-66
2022/12/19 04:14:55;;;;;;;1999.90;999.90;;;;;;;-3.84;100.00;95990.63;5034310;28;20236;-66
2022/12/19 04:17:35;;;;;;;1999.90;999.90;;;;;;;-3.72;100.00;96025.59;5033712;28;20186;-66
2022/12/19 04:20:08;;;;;;;1999.90;999.90;;;;;;;-3.55;100.00;96055.13;5034218;28;20174;-59
2022/12/19 04:22:36;;;;;;;1999.90;999.90;;;;;;;-3.45;100.00;96014.88;5034143;28;20179;-61
2022/12/19 04:25:02;;;;;;;1999.90;999.90;;;;;;;-3.43;100.00;96037.84;5033483;28;20178;-61
2022/12/19 04:27:29;;;;;;;1999.90;999.90;;;;;;;-3.30;100.00;96037.00;5033219;28;20176;-62
2022/12/19 04:29:57;;;;;;;1999.90;999.90;;;;;;;-3.33;100.00;96037.59;5033530;28;20210;-61
2022/12/19 04:32:25;;;;;;;1999.90;999.90;;;;;;;-3.31;100.00;96020.22;5033926;28;20240;-61
2022/12/19 04:34:50;;;;;;;1999.90;999.90;;;;;;;-3.21;100.00;96019.19;5033460;28;20175;-61
2022/12/19 04:37:16;;;;;;;1999.90;999.90;;;;;;;-3.09;100.00;96056.84;5033366;28;20193;-60
2022/12/19 04:39:41;;;;;;;1999.90;999.90;;;;;;;-3.11;100.00;96040.31;5033857;28;20174;-55
2022/12/19 04:42:07;;;;;;;1999.90;999.90;;;;;;;-3.07;100.00;96041.31;5033137;28;20175;-67
2022/12/19 04:44:32;;;;;;;1999.90;999.90;;;;;;;-3.19;100.00;96011.66;5033289;28;20532;-67
2022/12/19 04:46:57;;;;;;;1999.90;999.90;;;;;;;-3.25;100.00;96007.56;5033309;28;20213;-67
2022/12/19 04:49:22;;;;;;;1999.90;999.90;;;;;;;-3.22;100.00;95985.56;5033185;28;20178;-68
2022/12/19 04:51:48;;;;;;;1999.90;999.90;;;;;;;-3.26;100.00;96017.44;5033031;28;20174;-68
2022/12/19 04:54:13;;;;;;;1999.90;999.90;;;;;;;-3.14;100.00;96019.59;5032993;28;20178;-67
2022/12/19 04:56:39;;;;;;;1999.90;999.90;;;;;;;-3.12;100.00;95996.03;5033163;28;20213;-67
2022/12/19 04:59:04;;;;;;;1999.90;999.90;;;;;;;-3.24;100.00;95971.75;5033218;28;20261;-66
2022/12/19 05:01:29;;;;;;;1999.90;999.90;;;;;;;-3.31;100.00;95982.03;5033626;28;20178;-59
2022/12/19 05:03:55;;;;;;;1999.90;999.90;;;;;;;-3.24;100.00;95983.22;5033067;28;20202;-59
2022/12/19 05:06:20;;;;;;;1999.90;999.90;;;;;;;-3.11;100.00;95992.25;5035796;28;20203;-59
2022/12/19 05:08:46;;;;;;;1999.90;999.90;;;;;;;-3.06;100.00;96008.19;5037372;28;20269;-59
2022/12/19 05:11:14;;;;;;;1999.90;999.90;;;;;;;-3.05;100.00;95999.88;5036922;28;20179;-59
2022/12/19 05:13:39;;;;;;;1999.90;999.90;;;;;;;-3.03;100.00;96010.25;5036505;28;20186;-59
2022/12/19 05:16:07;;;;;;;1999.90;999.90;;;;;;;-3.00;100.00;95988.25;5036813;28;20183;-66
2022/12/19 05:18:34;;;;;;;1999.90;999.90;;;;;;;-2.99;100.00;95979.94;5037385;28;20186;-59
2022/12/19 05:21:00;;;;;;;1999.90;999.90;;;;;;;-3.02;100.00;95993.94;5036550;28;20182;-61
2022/12/19 05:23:25;;;;;;;1999.90;999.90;;;;;;;-2.99;100.00;95989.84;5036345;28;20261;-62
2022/12/19 05:25:51;;;;;;;1999.90;999.90;;;;;;;-3.04;100.00;95981.94;5036518;28;20206;-61
2022/12/19 05:28:17;;;;;;;1999.90;999.90;;;;;;;-3.06;100.00;95986.81;5036400;28;20189;-60
2022/12/19 05:30:42;;;;;;;1999.90;999.90;;;;;;;-3.06;100.00;95978.81;5036465;28;20223;-61
2022/12/19 05:33:08;;;;;;;1999.90;999.90;;;;;;;-2.92;100.00;95992.91;5037013;28;20174;-60
2022/12/19 05:35:34;;;;;;;1999.90;999.90;;;;;;;-2.84;100.00;96014.31;5036580;28;20194;-69
2022/12/19 05:38:00;;;;;;;1999.90;999.90;;;;;;;-2.66;100.00;96025.94;5037005;28;20181;-68
2022/12/19 05:40:25;;;;;;;1999.90;999.90;;;;;;;-2.62;100.00;96013.53;5036314;28;20174;-68
2022/12/19 05:42:51;;;;;;;1999.90;999.90;;;;;;;-2.52;100.00;96007.94;5036298;28;20182;-68
2022/12/19 05:45:16;;;;;;;1999.90;999.90;;;;;;;-2.51;100.00;96007.66;5036074;28;20266;-67
2022/12/19 05:47:45;;;;;;;1999.90;999.90;;;;;;;-2.44;100.00;95996.53;5036557;28;20178;-68
2022/12/19 05:50:11;;;;;;;1999.90;999.90;;;;;;;-2.53;100.00;96003.69;5036130;28;20200;-69
2022/12/19 05:52:36;;;;;;;1999.90;999.90;;;;;;;-2.57;100.00;96019.53;5036093;28;20186;-66
2022/12/19 05:55:02;;;;;;;1999.90;999.90;;;;;;;-2.52;100.00;96014.06;5035738;28;20554;-58
2022/12/19 05:57:28;;;;;;;1999.90;999.90;;;;;;;-2.56;100.00;96020.34;5036099;28;20189;-60
2022/12/19 05:59:53;;;;;;;1999.90;999.90;;;;;;;-2.62;100.00;96022.31;5036053;28;20258;-55
2022/12/19 06:02:18;;;;;;;1999.90;999.90;;;;;;;-2.58;100.00;96020.66;5036045;28;20237;-54
2022/12/19 06:04:44;;;;;;;1999.90;999.90;;;;;;;-2.54;100.00;96034.19;5035669;28;20198;-55
2022/12/19 06:07:09;;;;;;;1999.90;999.90;;;;;;;-2.51;100.00;96026.34;5035763;28;20206;-53
2022/12/19 06:09:35;;;;;;;1999.90;999.90;;;;;;;-2.62;100.00;96038.34;5035992;28;20178;-54
2022/12/19 06:12:00;;;;;;;1999.90;999.90;;;;;;;-2.57;100.00;96024.91;5035667;28;20171;-66
2022/12/19 06:14:25;;;;;;;1999.90;999.90;;;;;;;-2.61;100.00;96029.28;5035739;28;20171;-59
2022/12/19 06:16:51;;;;;;;1999.90;999.90;;;;;;;-2.59;100.00;96016.38;5034873;28;20170;-59
2022/12/19 06:19:16;;;;;;;1999.90;999.90;;;;;;;-2.58;100.00;96007.28;5035489;28;20245;-58
2022/12/19 06:21:42;;;;;;;1999.90;999.90;;;;;;;-2.59;100.00;96016.38;5035957;28;20175;-59
2022/12/19 06:24:07;;;;;;;1999.90;999.90;;;;;;;-2.51;100.00;96009.53;5035241;28;20174;-59
2022/12/19 06:26:33;;;;;;;1999.90;999.90;;;;;;;-2.51;100.00;96022.88;5035781;28;20229;-59
2022/12/19 06:28:58;;;;;;;1999.90;999.90;;;;;;;-2.42;100.00;96010.34;5035469;28;20177;-58
2022/12/19 06:31:24;;;;;;;1999.90;999.90;;;;;;;-2.41;100.00;96017.28;5034951;28;20226;-56
2022/12/19 06:33:50;;;;;;;1999.90;999.90;;;;;;;-2.33;100.00;96008.53;5035753;28;20202;-54
2022/12/19 06:36:24;;;;;;;1999.90;999.90;;;;;;;-2.34;100.00;96023.78;5034982;28;20178;-56
2022/12/19 06:38:50;;;;;;;1999.90;999.90;;;;;;;-2.28;100.00;96008.38;5035267;28;20274;-56
2022/12/19 06:44:03;;;;;;;1999.90;999.90;;;;;;;-2.20;100.00;96018.34;5036484;28;20170;-55
2022/12/19 06:46:29;;;;;;;1999.90;999.90;;;;;;;-2.29;100.00;96020.19;5034861;28;20251;-57
2022/12/19 06:48:54;;;;;;;1999.90;999.90;;;;;;;-2.37;100.00;96007.56;5034926;28;20170;-57
2022/12/19 06:51:20;;;;;;;1999.90;999.90;;;;;;;-2.34;100.00;96013.06;5034495;28;20250;-59
2022/12/19 06:53:45;;;;;;;1999.90;999.90;;;;;;;-2.31;100.00;95998.31;5034611;28;20211;-59
2022/12/19 06:56:13;;;;;;;1999.90;999.90;;;;;;;-2.31;100.00;96000.97;5034898;28;20179;-59
2022/12/19 06:58:38;;;;;;;1999.90;999.90;;;;;;;-2.33;100.00;95995.16;5034719;28;20171;-57
2022/12/19 07:01:03;;;;;;;1999.90;999.90;;;;;;;-2.28;100.00;95990.47;5034880;28;20189;-57
2022/12/19 07:03:36;;;;;;;1999.90;999.90;;;;;;;-2.27;100.00;95988.56;5035184;28;20176;-57
2022/12/19 07:06:03;;;;;;;1999.90;999.90;;;;;;;-2.24;100.00;95982.63;5035271;28;20598;-66
2022/12/19 07:08:29;;;;;;;1999.90;999.90;;;;;;;-2.24;100.00;95986.09;5034839;28;20186;-55
2022/12/19 07:10:54;;;;;;;1999.90;999.90;;;;;;;-2.16;100.00;95981.84;5034459;28;20178;-60
2022/12/19 07:13:20;;;;;;;1999.90;999.90;;;;;;;-2.11;100.00;95979.06;5035005;28;20217;-60
2022/12/19 07:15:45;;;;;;;1999.90;999.90;;;;;;;-2.07;100.00;95969.31;5034267;28;20257;-60
2022/12/19 07:18:11;;;;;;;1999.90;999.90;;;;;;;-2.05;100.00;95975.94;5034566;28;20176;-61
2022/12/19 07:20:40;;;;;;;1999.90;999.90;;;;;;;-2.01;100.00;95974.22;5034401;28;20179;-61
2022/12/19 07:23:06;;;;;;;1999.90;999.90;;;;;;;-1.83;100.00;95980.41;5034214;28;20269;-61
2022/12/19 07:25:31;;;;;;;1999.90;999.90;;;;;;;-1.79;100.00;95982.16;5034739;28;20194;-58
2022/12/19 07:27:57;;;;;;;1999.90;999.90;;;;;;;-1.67;100.00;95978.91;5034121;28;20182;-64
2022/12/19 07:30:22;;;;;;;1999.90;999.90;;;;;;;-1.56;100.00;95986.31;5033797;28;20168;-63
2022/12/19 07:32:48;;;;;;;1999.90;999.90;;;;;;;-1.42;100.00;95983.53;5034515;28;20580;-62
2022/12/19 07:35:13;;;;;;;1999.90;999.90;;;;;;;-1.32;100.00;95985.88;5033981;28;20236;-61
2022/12/19 07:37:39;;;;;;;1999.90;999.90;;;;;;;-1.21;100.00;95985.28;5033515;28;20250;-61
2022/12/19 07:40:05;;;;;;;1999.90;999.90;;;;;;;-1.33;100.00;96003.06;5034622;28;20261;-61
2022/12/19 07:42:30;;;;;;;1999.90;999.90;;;;;;;-1.11;100.00;96002.94;5033732;28;20181;-63
2022/12/19 07:44:56;;;;;;;1999.90;999.90;;;;;;;-1.05;100.00;96015.09;5034060;28;20172;-59
2022/12/19 07:47:21;;;;;;;1999.90;999.90;;;;;;;-0.98;100.00;96034.16;5033253;28;20204;-59
2022/12/19 07:49:46;;;;;;;1999.90;999.90;;;;;;;-0.97;100.00;96022.34;5033912;28;20174;-59
2022/12/19 07:52:12;;;;;;;1999.90;999.90;;;;;;;-0.89;100.00;96042.97;5034385;28;20226;-59
2022/12/19 07:54:37;;;;;;;1999.90;999.90;;;;;;;-0.88;100.00;96044.56;5034666;28;20181;-59
2022/12/19 07:57:02;;;;;;;1999.90;999.90;;;;;;;-0.92;100.00;96055.13;5034254;28;20610;-59
2022/12/19 07:59:28;;;;;;;1999.90;999.90;;;;;;;-0.86;100.00;96063.81;5033614;28;20622;-59
2022/12/19 08:01:53;;;;;;;1999.90;999.90;;;;;;;-0.82;100.00;96059.38;5033943;28;20172;-55
2022/12/19 08:04:18;;;;;;;1999.90;999.90;;;;;;;-0.83;100.00;96065.84;5033874;28;20255;-60
2022/12/19 08:06:45;;;;;;;1999.90;999.90;;;;;;;-0.70;100.00;96063.03;5033884;28;20243;-59
2022/12/19 08:09:11;;;;;;;1999.90;999.90;;;;;;;-0.56;100.00;96055.63;5034112;28;20173;-59
2022/12/19 08:11:36;;;;;;;1999.90;999.90;;;;;;;-0.38;100.00;96065.22;5034241;28;20175;-60
2022/12/19 08:14:02;;;;;;;1999.90;999.90;;;;;;;-0.32;100.00;96074.66;5034276;28;20183;-59
2022/12/19 08:16:27;;;;;;;1999.90;999.90;;;;;;;0.00;100.00;96076.84;5033522;28;20176;-59
2022/12/19 08:18:54;;;;;;;1999.90;999.90;;;;;;;0.01;100.00;96083.00;5033992;28;20198;-59
2022/12/19 08:21:20;;;;;;;1999.90;999.90;;;;;;;0.08;100.00;96088.69;5033050;28;20164;-60
2022/12/19 08:23:45;;;;;;;1999.90;999.90;;;;;;;0.05;100.00;96094.69;5033454;28;20242;-66
2022/12/19 08:26:15;;;;;;;1999.90;999.90;;;;;;;-0.13;100.00;96099.28;5033575;28;20257;-65
2022/12/19 08:28:42;;;;;;;1999.90;999.90;;;;;;;-0.17;100.00;96094.88;5033465;28;20176;-66
2022/12/19 08:31:10;;;;;;;1999.90;999.90;;;;;;;-0.24;100.00;96086.50;5033110;28;20225;-65
2022/12/19 08:33:35;;;;;;;1999.90;999.90;;;;;;;-0.24;100.00;96076.59;5033255;28;20177;-66
2022/12/19 08:36:05;;;;;;;1999.90;999.90;;;;;;;-0.04;100.00;96059.81;5032916;28;20236;-66
2022/12/19 08:38:31;;;;;;;1999.90;999.90;;;;;;;-0.01;100.00;96053.00;5033412;28;20189;-60
2022/12/19 08:40:56;;;;;;;1999.90;999.90;;;;;;;0.20;100.00;96042.34;5035292;28;20180;-59
2022/12/19 08:43:21;;;;;;;1999.90;999.90;;;;;;;0.36;100.00;96035.38;5037087;28;20319;-61
2022/12/19 08:45:50;;;;;;;1999.90;999.90;;;;;;;0.63;100.00;96035.72;5037118;28;20198;-61
2022/12/19 08:48:16;;;;;;;1999.90;999.90;;;;;;;0.96;100.00;96036.63;5037498;28;20227;-61
2022/12/19 08:51:00;;;;;;;1999.90;999.90;;;;;;;1.10;100.00;96039.06;5037146;28;20188;-61
2022/12/19 08:53:27;;;;;;;1999.90;999.90;;;;;;;1.21;100.00;96051.78;5036995;28;20175;-60
2022/12/19 08:56:06;;;;;;;1999.90;999.90;;;;;;;1.28;100.00;96052.06;5037002;28;20175;-61
2022/12/19 08:58:32;;;;;;;1999.90;999.90;;;;;;;1.40;100.00;96054.81;5037849;28;20182;-62
2022/12/19 09:00:59;;;;;;;1999.90;999.90;;;;;;;1.84;100.00;96048.72;5038313;28;20178;-61
2022/12/19 09:03:25;;;;;;;1999.90;999.90;;;;;;;2.07;100.00;96062.59;5037767;28;20171;-61
2022/12/19 09:06:02;;;;;;;1999.90;999.90;;;;;;;2.02;100.00;96060.91;5036720;28;20190;-61
2022/12/19 09:08:28;;;;;;;1999.90;999.90;;;;;;;1.83;100.00;96062.53;5037030;28;20182;-61
2022/12/19 09:11:05;;;;;;;1999.90;999.90;;;;;;;1.83;100.00;96057.94;5036516;28;20178;-61
2022/12/19 09:13:32;;;;;;;1999.90;999.90;;;;;;;1.80;100.00;96063.97;5036610;28;20174;-61
2022/12/19 09:16:11;;;;;;;1999.90;999.90;;;;;;;1.68;100.00;96060.44;5036465;28;20178;-62
2022/12/19 09:18:36;;;;;;;1999.90;999.90;;;;;;;1.70;100.00;96040.16;5036681;28;20182;-61
2022/12/19 09:21:02;;;;;;;1999.90;999.90;;;;;;;1.87;100.00;96026.53;5036130;28;20224;-61
2022/12/19 09:23:30;;;;;;;1999.90;999.90;;;;;;;1.87;100.00;96025.75;5036716;28;20193;-61
2022/12/19 09:26:19;;;;;;;1999.90;999.90;;;;;;;1.99;100.00;96023.06;5037226;28;20229;-60
2022/12/19 09:28:46;;;;;;;1999.90;999.90;;;;;;;2.06;100.00;96020.63;5037024;28;20178;-61
2022/12/19 09:31:14;;;;;;;1999.90;999.90;;;;;;;2.28;100.00;96022.91;5036099;28;20233;-60
2022/12/19 09:33:40;;;;;;;1999.90;999.90;;;;;;;2.45;100.00;96022.72;5036915;28;20257;-67
2022/12/19 09:36:06;;;;;;;1999.90;999.90;;;;;;;2.64;100.00;96012.97;5036232;28;20202;-62
2022/12/19 09:38:32;;;;;;;1999.90;999.90;;;;;;;2.85;100.00;96019.00;5036456;28;20173;-58
2022/12/19 09:41:05;;;;;;;1999.90;999.90;;;;;;;3.00;100.00;96037.22;5036744;28;20174;-59
2022/12/19 09:44:18;;;;;;;1999.90;999.90;;;;;;;3.23;100.00;96041.00;5036534;28;20185;-59
2022/12/19 09:46:48;;;;;;;1999.90;999.90;;;;;;;3.43;100.00;96053.53;4967346;28;20219;-59
2022/12/19 09:49:37;;;;;;;1999.90;999.90;;;;;;;3.57;100.00;96065.88;5036665;28;20182;-59
2022/12/19 09:52:12;;;;;;;1999.90;999.90;;;;;;;3.66;100.00;96072.72;5035816;28;20193;-61
2022/12/19 09:54:43;;;;;;;1999.90;999.90;;;;;;;3.78;100.00;96067.25;5035882;28;20167;-60
2022/12/19 09:57:45;;;;;;;1999.90;999.90;;;;;;;3.81;100.00;96090.09;5035663;28;20181;-62
2022/12/19 10:00:14;;;;;;;1999.90;999.90;;;;;;;3.84;100.00;96092.13;5022885;28;20190;-62
2022/12/19 10:02:40;;;;;;;1999.90;999.90;;;;;;;3.98;100.00;96082.50;5036480;28;20169;-63
2022/12/19 10:05:13;;;;;;;1999.90;999.90;;;;;;;4.01;100.00;96081.03;5035789;28;20200;-64
2022/12/19 10:07:38;;;;;;;1999.90;999.90;;;;;;;3.97;100.00;96075.50;5036927;28;20208;-63
2022/12/19 10:10:04;;;;;;;1999.90;999.90;;;;;;;3.89;100.00;96083.78;5036046;28;20175;-78
2022/12/19 10:12:48;;;;;;;1999.90;999.90;;;;;;;3.98;100.00;96079.00;5035871;28;20271;-63
2022/12/19 10:15:27;;;;;;;1999.90;999.90;;;;;;;4.05;100.00;96092.72;5036185;28;20175;-66
2022/12/19 10:18:11;;;;;;;1999.90;999.90;;;;;;;4.06;100.00;96099.69;5036129;28;20167;-65
2022/12/19 10:20:41;;;;;;;1999.90;999.90;;;;;;;4.26;100.00;96098.72;5035673;28;20178;-66
2022/12/19 10:23:39;;;;;;;1999.90;999.90;;;;;;;4.35;100.00;96099.34;5035290;28;20178;-66
2022/12/19 10:26:21;;;;;;;1999.90;999.90;;;;;;;4.22;100.00;96105.94;5036619;28;20208;-66
2022/12/19 10:29:09;;;;;;;1999.90;999.90;;;;;;;4.28;100.00;96102.63;5035841;28;20241;-65
2022/12/19 10:31:47;;;;;;;1999.90;999.90;;;;;;;4.25;100.00;96106.03;5034742;28;20233;-64
2022/12/19 10:34:43;;;;;;;1999.90;999.90;;;;;;;4.50;100.00;96093.16;5035810;28;20185;-64
2022/12/19 10:37:22;;;;;;;1999.90;999.90;;;;;;;4.61;100.00;96094.22;5018994;28;20194;-62
2022/12/19 10:40:02;;;;;;;1999.90;999.90;;;;;;;4.83;100.00;96080.91;5035090;28;20184;-62
2022/12/19 10:42:37;;;;;;;1999.90;999.90;;;;;;;4.81;100.00;96077.75;5035183;28;20251;-62
2022/12/19 10:45:12;;;;;;;1999.90;999.90;;;;;;;4.70;100.00;96094.84;5036052;28;20263;-62
2022/12/19 10:47:39;;;;;;;1999.90;999.90;;;;;;;4.71;100.00;96072.06;5036303;28;20199;-59
2022/12/19 10:53:03;;;;;;;1999.90;999.90;;;;;;;4.75;100.00;96059.44;5034858;28;20532;-63
2022/12/19 10:55:47;;;;;;;1999.90;999.90;;;;;;;4.80;100.00;96053.75;5032381;28;20222;-64
2022/12/19 10:58:31;;;;;;;1999.90;999.90;;;;;;;4.59;100.00;96055.94;5035237;28;20179;-66
2022/12/19 11:01:14;;;;;;;1999.90;999.90;;;;;;;4.61;100.00;96040.13;5034903;28;20656;-64
2022/12/19 11:03:47;;;;;;;1999.90;999.90;;;;;;;4.33;100.00;96031.34;5037762;28;20200;-63
2022/12/19 11:06:43;;;;;;;1999.90;999.90;;;;;;;3.96;100.00;96032.66;5054783;28;20276;-61
2022/12/19 11:09:22;;;;;;;1999.90;999.90;;;;;;;3.96;100.00;96002.94;5071621;28;20175;-69
2022/12/19 11:12:06;;;;;;;1999.90;999.90;;;;;;;3.65;100.00;95984.75;5071211;28;20202;-68